Rochester, Michigan
Current Conditions -  °F | °C
As of 8:55 AM on Saturday 25 Oct 2014 (Local Time) from KVLL Reporting Station
Haze Haze  
Wind Chill: 51°   Ceiling: 4500
Heat Index: 51°   Visibility: 4mi
Dew Point: 47°   Wind: 7mph
Humidity: 85%   Direction: 230°SW
Pressure: 29.84"   Gusts: NA
Location:  42.68°N, 83.14°W
Report Text: KVLL 251255Z AUTO 23006KT 4SM BR BKN045 11/08 A2984 RMK AO2 T01050081
Loading
Personal Weather Stations






























Interactive Weather Map
Tropical Storm Tracking
New forecast layout! Learn more

10-Day Weather Forecast

Advertisements
Track Severe Weather on mobile